sensor_id;sensor_type;location;lat;lon;timestamp;P1;durP1;ratioP1;P2;durP2;ratioP2
3541;SDS011;1785;47.388;8.538;2023-11-19T00:00:10;4.20;;;3.93;;
3541;SDS011;1785;47.388;8.538;2023-11-19T00:02:37;3.97;;;3.63;;
3541;SDS011;1785;47.388;8.538;2023-11-19T00:05:03;3.60;;;3.40;;
3541;SDS011;1785;47.388;8.538;2023-11-19T00:07:31;4.30;;;4.00;;
3541;SDS011;1785;47.388;8.538;2023-11-19T00:09:58;4.10;;;3.70;;
3541;SDS011;1785;47.388;8.538;2023-11-19T00:12:29;3.83;;;3.53;;
3541;SDS011;1785;47.388;8.538;2023-11-19T00:14:55;3.97;;;3.67;;
3541;SDS011;1785;47.388;8.538;2023-11-19T00:17:21;4.73;;;4.33;;
3541;SDS011;1785;47.388;8.538;2023-11-19T00:19:47;3.63;;;3.27;;
3541;SDS011;1785;47.388;8.538;2023-11-19T00:22:16;3.77;;;3.57;;
3541;SDS011;1785;47.388;8.538;2023-11-19T00:24:42;3.80;;;3.50;;
3541;SDS011;1785;47.388;8.538;2023-11-19T00:27:09;4.00;;;3.70;;
3541;SDS011;1785;47.388;8.538;2023-11-19T00:29:36;3.90;;;3.60;;
3541;SDS011;1785;47.388;8.538;2023-11-19T00:32:02;4.23;;;3.90;;
3541;SDS011;1785;47.388;8.538;2023-11-19T00:34:31;5.53;;;4.27;;
3541;SDS011;1785;47.388;8.538;2023-11-19T00:36:57;4.37;;;3.97;;
3541;SDS011;1785;47.388;8.538;2023-11-19T00:39:23;4.80;;;4.40;;
3541;SDS011;1785;47.388;8.538;2023-11-19T00:41:49;5.07;;;4.43;;
3541;SDS011;1785;47.388;8.538;2023-11-19T00:44:15;5.50;;;5.10;;
3541;SDS011;1785;47.388;8.538;2023-11-19T00:46:41;5.23;;;4.80;;
3541;SDS011;1785;47.388;8.538;2023-11-19T00:49:07;5.70;;;5.30;;
3541;SDS011;1785;47.388;8.538;2023-11-19T00:51:34;5.93;;;5.53;;
3541;SDS011;1785;47.388;8.538;2023-11-19T00:54:00;4.90;;;4.50;;
3541;SDS011;1785;47.388;8.538;2023-11-19T00:56:26;5.30;;;4.60;;
3541;SDS011;1785;47.388;8.538;2023-11-19T00:58:53;4.67;;;4.30;;
3541;SDS011;1785;47.388;8.538;2023-11-19T01:01:19;4.30;;;4.00;;
3541;SDS011;1785;47.388;8.538;2023-11-19T01:03:45;3.70;;;3.40;;
3541;SDS011;1785;47.388;8.538;2023-11-19T01:06:11;3.13;;;2.90;;
3541;SDS011;1785;47.388;8.538;2023-11-19T01:08:39;3.50;;;3.30;;
3541;SDS011;1785;47.388;8.538;2023-11-19T01:11:07;3.27;;;3.07;;
3541;SDS011;1785;47.388;8.538;2023-11-19T01:13:33;3.70;;;2.63;;
3541;SDS011;1785;47.388;8.538;2023-11-19T01:15:59;2.80;;;2.70;;
3541;SDS011;1785;47.388;8.538;2023-11-19T01:18:27;3.83;;;3.53;;
3541;SDS011;1785;47.388;8.538;2023-11-19T01:20:53;3.43;;;3.13;;
3541;SDS011;1785;47.388;8.538;2023-11-19T01:23:19;3.97;;;3.67;;
3541;SDS011;1785;47.388;8.538;2023-11-19T01:25:46;3.30;;;3.00;;
3541;SDS011;1785;47.388;8.538;2023-11-19T01:28:13;3.17;;;2.97;;
3541;SDS011;1785;47.388;8.538;2023-11-19T01:30:39;2.57;;;2.47;;
3541;SDS011;1785;47.388;8.538;2023-11-19T01:33:06;3.00;;;2.70;;
3541;SDS011;1785;47.388;8.538;2023-11-19T01:35:32;3.40;;;2.63;;
3541;SDS011;1785;47.388;8.538;2023-11-19T01:37:58;3.00;;;2.80;;
3541;SDS011;1785;47.388;8.538;2023-11-19T01:40:24;3.00;;;2.80;;
3541;SDS011;1785;47.388;8.538;2023-11-19T01:42:51;6.63;;;2.80;;
3541;SDS011;1785;47.388;8.538;2023-11-19T01:45:21;2.70;;;2.50;;
3541;SDS011;1785;47.388;8.538;2023-11-19T01:47:53;2.70;;;2.27;;
3541;SDS011;1785;47.388;8.538;2023-11-19T01:50:19;2.87;;;2.57;;
3541;SDS011;1785;47.388;8.538;2023-11-19T01:52:46;5.23;;;3.60;;
3541;SDS011;1785;47.388;8.538;2023-11-19T01:55:13;2.13;;;2.03;;
3541;SDS011;1785;47.388;8.538;2023-11-19T01:57:39;2.53;;;2.33;;
3541;SDS011;1785;47.388;8.538;2023-11-19T02:00:07;2.67;;;2.47;;
3541;SDS011;1785;47.388;8.538;2023-11-19T02:02:36;2.83;;;2.57;;
3541;SDS011;1785;47.388;8.538;2023-11-19T02:05:03;2.57;;;2.43;;
3541;SDS011;1785;47.388;8.538;2023-11-19T02:07:29;2.80;;;2.50;;
3541;SDS011;1785;47.388;8.538;2023-11-19T02:09:56;2.90;;;2.60;;
3541;SDS011;1785;47.388;8.538;2023-11-19T02:12:24;3.00;;;2.80;;
3541;SDS011;1785;47.388;8.538;2023-11-19T02:14:50;3.73;;;2.60;;
3541;SDS011;1785;47.388;8.538;2023-11-19T02:17:26;2.73;;;2.53;;
3541;SDS011;1785;47.388;8.538;2023-11-19T02:19:53;4.83;;;3.27;;
3541;SDS011;1785;47.388;8.538;2023-11-19T02:22:19;2.40;;;2.20;;
3541;SDS011;1785;47.388;8.538;2023-11-19T02:24:45;3.10;;;2.05;;
3541;SDS011;1785;47.388;8.538;2023-11-19T02:27:15;2.67;;;2.47;;
3541;SDS011;1785;47.388;8.538;2023-11-19T02:29:48;3.00;;;2.80;;
3541;SDS011;1785;47.388;8.538;2023-11-19T02:32:15;3.47;;;2.63;;
3541;SDS011;1785;47.388;8.538;2023-11-19T02:34:41;2.70;;;2.50;;
3541;SDS011;1785;47.388;8.538;2023-11-19T02:37:07;2.87;;;2.67;;
3541;SDS011;1785;47.388;8.538;2023-11-19T02:39:33;3.10;;;2.90;;
3541;SDS011;1785;47.388;8.538;2023-11-19T02:41:59;2.80;;;2.60;;
3541;SDS011;1785;47.388;8.538;2023-11-19T02:44:25;3.25;;;1.80;;
3541;SDS011;1785;47.388;8.538;2023-11-19T02:46:54;2.60;;;2.50;;
3541;SDS011;1785;47.388;8.538;2023-11-19T02:49:20;2.60;;;2.47;;
3541;SDS011;1785;47.388;8.538;2023-11-19T02:51:46;2.30;;;2.20;;
3541;SDS011;1785;47.388;8.538;2023-11-19T02:54:12;2.83;;;2.63;;
3541;SDS011;1785;47.388;8.538;2023-11-19T02:56:42;2.50;;;2.30;;
3541;SDS011;1785;47.388;8.538;2023-11-19T02:59:08;2.80;;;2.60;;
3541;SDS011;1785;47.388;8.538;2023-11-19T03:01:43;3.00;;;2.70;;
3541;SDS011;1785;47.388;8.538;2023-11-19T03:04:15;2.70;;;2.60;;
3541;SDS011;1785;47.388;8.538;2023-11-19T03:06:45;2.70;;;2.50;;
3541;SDS011;1785;47.388;8.538;2023-11-19T03:09:11;3.00;;;2.63;;
3541;SDS011;1785;47.388;8.538;2023-11-19T03:11:37;3.70;;;3.40;;
3541;SDS011;1785;47.388;8.538;2023-11-19T03:14:03;4.90;;;4.00;;
3541;SDS011;1785;47.388;8.538;2023-11-19T03:16:30;3.50;;;3.20;;
3541;SDS011;1785;47.388;8.538;2023-11-19T03:19:00;3.80;;;3.50;;
3541;SDS011;1785;47.388;8.538;2023-11-19T03:21:29;4.13;;;3.83;;
3541;SDS011;1785;47.388;8.538;2023-11-19T03:23:56;4.47;;;4.10;;
3541;SDS011;1785;47.388;8.538;2023-11-19T03:26:25;4.27;;;3.97;;
3541;SDS011;1785;47.388;8.538;2023-11-19T03:28:51;4.33;;;4.03;;
3541;SDS011;1785;47.388;8.538;2023-11-19T03:31:17;4.53;;;4.23;;
3541;SDS011;1785;47.388;8.538;2023-11-19T03:33:44;4.30;;;4.00;;
3541;SDS011;1785;47.388;8.538;2023-11-19T03:36:10;4.60;;;4.20;;
3541;SDS011;1785;47.388;8.538;2023-11-19T03:38:38;4.20;;;3.90;;
3541;SDS011;1785;47.388;8.538;2023-11-19T03:41:10;4.20;;;3.90;;
3541;SDS011;1785;47.388;8.538;2023-11-19T03:43:36;4.40;;;4.10;;
3541;SDS011;1785;47.388;8.538;2023-11-19T03:46:03;6.03;;;4.67;;
3541;SDS011;1785;47.388;8.538;2023-11-19T03:48:30;2.83;;;2.73;;
3541;SDS011;1785;47.388;8.538;2023-11-19T03:50:56;3.57;;;3.27;;
3541;SDS011;1785;47.388;8.538;2023-11-19T03:53:22;3.93;;;3.63;;
3541;SDS011;1785;47.388;8.538;2023-11-19T03:55:50;3.10;;;2.90;;
3541;SDS011;1785;47.388;8.538;2023-11-19T03:58:16;5.80;;;3.20;;
3541;SDS011;1785;47.388;8.538;2023-11-19T04:00:42;3.30;;;3.10;;
3541;SDS011;1785;47.388;8.538;2023-11-19T04:03:08;4.10;;;3.80;;
3541;SDS011;1785;47.388;8.538;2023-11-19T04:05:34;3.50;;;3.20;;
3541;SDS011;1785;47.388;8.538;2023-11-19T04:08:00;3.10;;;2.90;;
3541;SDS011;1785;47.388;8.538;2023-11-19T04:10:26;3.57;;;3.20;;
3541;SDS011;1785;47.388;8.538;2023-11-19T04:12:53;3.00;;;2.80;;
3541;SDS011;1785;47.388;8.538;2023-11-19T04:15:19;3.10;;;2.90;;
3541;SDS011;1785;47.388;8.538;2023-11-19T04:17:45;3.63;;;2.87;;
3541;SDS011;1785;47.388;8.538;2023-11-19T04:20:11;2.90;;;2.70;;
3541;SDS011;1785;47.388;8.538;2023-11-19T04:22:38;3.67;;;2.63;;
3541;SDS011;1785;47.388;8.538;2023-11-19T04:25:05;3.03;;;2.83;;
3541;SDS011;1785;47.388;8.538;2023-11-19T04:27:31;2.60;;;2.40;;
3541;SDS011;1785;47.388;8.538;2023-11-19T04:29:58;5.17;;;2.47;;
3541;SDS011;1785;47.388;8.538;2023-11-19T04:32:26;2.60;;;2.40;;
3541;SDS011;1785;47.388;8.538;2023-11-19T04:34:52;2.17;;;1.97;;
3541;SDS011;1785;47.388;8.538;2023-11-19T04:37:18;2.87;;;2.67;;
3541;SDS011;1785;47.388;8.538;2023-11-19T04:39:44;2.70;;;2.50;;
3541;SDS011;1785;47.388;8.538;2023-11-19T04:42:11;2.27;;;2.07;;
3541;SDS011;1785;47.388;8.538;2023-11-19T04:44:37;2.63;;;2.43;;
3541;SDS011;1785;47.388;8.538;2023-11-19T04:47:04;2.80;;;2.30;;
3541;SDS011;1785;47.388;8.538;2023-11-19T04:49:30;2.50;;;2.40;;
3541;SDS011;1785;47.388;8.538;2023-11-19T04:51:57;2.33;;;2.17;;
3541;SDS011;1785;47.388;8.538;2023-11-19T04:54:23;2.20;;;2.10;;
3541;SDS011;1785;47.388;8.538;2023-11-19T04:56:49;1.97;;;1.87;;
3541;SDS011;1785;47.388;8.538;2023-11-19T04:59:15;4.10;;;2.00;;
3541;SDS011;1785;47.388;8.538;2023-11-19T05:01:46;2.23;;;2.03;;
3541;SDS011;1785;47.388;8.538;2023-11-19T05:04:13;2.03;;;1.93;;
3541;SDS011;1785;47.388;8.538;2023-11-19T05:06:39;2.43;;;2.27;;
3541;SDS011;1785;47.388;8.538;2023-11-19T05:09:05;2.20;;;2.00;;
3541;SDS011;1785;47.388;8.538;2023-11-19T05:11:32;2.57;;;2.33;;
3541;SDS011;1785;47.388;8.538;2023-11-19T05:13:59;7.53;;;2.60;;
3541;SDS011;1785;47.388;8.538;2023-11-19T05:16:25;2.30;;;2.10;;
3541;SDS011;1785;47.388;8.538;2023-11-19T05:18:51;2.33;;;2.23;;
3541;SDS011;1785;47.388;8.538;2023-11-19T05:21:18;2.50;;;2.30;;
3541;SDS011;1785;47.388;8.538;2023-11-19T05:23:44;2.40;;;2.20;;
3541;SDS011;1785;47.388;8.538;2023-11-19T05:26:16;2.60;;;2.40;;
3541;SDS011;1785;47.388;8.538;2023-11-19T05:28:43;2.43;;;2.23;;
3541;SDS011;1785;47.388;8.538;2023-11-19T05:31:09;3.40;;;2.22;;
3541;SDS011;1785;47.388;8.538;2023-11-19T05:33:35;3.00;;;2.47;;
3541;SDS011;1785;47.388;8.538;2023-11-19T05:36:02;2.10;;;2.00;;
3541;SDS011;1785;47.388;8.538;2023-11-19T05:38:29;3.20;;;2.40;;
3541;SDS011;1785;47.388;8.538;2023-11-19T05:40:55;3.80;;;2.30;;
3541;SDS011;1785;47.388;8.538;2023-11-19T05:43:22;2.03;;;1.93;;
3541;SDS011;1785;47.388;8.538;2023-11-19T05:45:48;2.00;;;1.90;;
3541;SDS011;1785;47.388;8.538;2023-11-19T05:48:14;2.40;;;2.20;;
3541;SDS011;1785;47.388;8.538;2023-11-19T05:50:40;2.03;;;1.93;;
3541;SDS011;1785;47.388;8.538;2023-11-19T05:53:06;2.17;;;2.07;;
3541;SDS011;1785;47.388;8.538;2023-11-19T05:55:36;2.13;;;1.80;;
3541;SDS011;1785;47.388;8.538;2023-11-19T05:58:09;1.90;;;1.80;;
3541;SDS011;1785;47.388;8.538;2023-11-19T06:00:37;3.20;;;1.87;;
3541;SDS011;1785;47.388;8.538;2023-11-19T06:03:03;1.80;;;1.70;;
3541;SDS011;1785;47.388;8.538;2023-11-19T06:05:29;2.20;;;1.97;;
3541;SDS011;1785;47.388;8.538;2023-11-19T06:07:55;1.70;;;1.60;;
3541;SDS011;1785;47.388;8.538;2023-11-19T06:10:22;2.03;;;1.93;;
3541;SDS011;1785;47.388;8.538;2023-11-19T06:12:54;2.80;;;1.77;;
3541;SDS011;1785;47.388;8.538;2023-11-19T06:15:22;1.73;;;1.63;;
3541;SDS011;1785;47.388;8.538;2023-11-19T06:17:48;1.73;;;1.63;;
3541;SDS011;1785;47.388;8.538;2023-11-19T06:20:14;1.67;;;1.57;;
3541;SDS011;1785;47.388;8.538;2023-11-19T06:22:40;2.13;;;1.90;;
3541;SDS011;1785;47.388;8.538;2023-11-19T06:25:07;2.30;;;2.20;;
3541;SDS011;1785;47.388;8.538;2023-11-19T06:27:34;1.70;;;1.60;;
3541;SDS011;1785;47.388;8.538;2023-11-19T06:30:01;1.63;;;1.53;;
3541;SDS011;1785;47.388;8.538;2023-11-19T06:32:27;2.43;;;1.90;;
3541;SDS011;1785;47.388;8.538;2023-11-19T06:34:53;1.67;;;1.57;;
3541;SDS011;1785;47.388;8.538;2023-11-19T06:37:20;1.87;;;1.70;;
3541;SDS011;1785;47.388;8.538;2023-11-19T06:39:46;2.00;;;1.90;;
3541;SDS011;1785;47.388;8.538;2023-11-19T06:42:12;1.40;;;1.30;;
3541;SDS011;1785;47.388;8.538;2023-11-19T06:44:38;1.93;;;1.80;;
3541;SDS011;1785;47.388;8.538;2023-11-19T06:47:05;2.53;;;2.10;;
3541;SDS011;1785;47.388;8.538;2023-11-19T06:49:31;1.63;;;1.50;;
3541;SDS011;1785;47.388;8.538;2023-11-19T06:51:58;2.53;;;1.73;;
3541;SDS011;1785;47.388;8.538;2023-11-19T06:54:24;1.50;;;1.40;;
3541;SDS011;1785;47.388;8.538;2023-11-19T06:56:50;1.80;;;1.70;;
3541;SDS011;1785;47.388;8.538;2023-11-19T06:59:16;2.00;;;1.90;;
3541;SDS011;1785;47.388;8.538;2023-11-19T07:01:42;1.87;;;1.77;;
3541;SDS011;1785;47.388;8.538;2023-11-19T07:04:10;2.83;;;1.83;;
3541;SDS011;1785;47.388;8.538;2023-11-19T07:06:37;1.70;;;1.60;;
3541;SDS011;1785;47.388;8.538;2023-11-19T07:09:04;2.20;;;2.10;;
3541;SDS011;1785;47.388;8.538;2023-11-19T07:11:34;1.80;;;1.70;;
3541;SDS011;1785;47.388;8.538;2023-11-19T07:14:01;1.70;;;1.60;;
3541;SDS011;1785;47.388;8.538;2023-11-19T07:16:28;5.60;;;1.83;;
3541;SDS011;1785;47.388;8.538;2023-11-19T07:18:54;3.50;;;1.60;;
3541;SDS011;1785;47.388;8.538;2023-11-19T07:21:21;1.60;;;1.47;;
3541;SDS011;1785;47.388;8.538;2023-11-19T07:23:47;1.77;;;1.57;;
3541;SDS011;1785;47.388;8.538;2023-11-19T07:26:14;1.70;;;1.60;;
3541;SDS011;1785;47.388;8.538;2023-11-19T07:28:40;1.57;;;1.47;;
3541;SDS011;1785;47.388;8.538;2023-11-19T07:31:06;2.07;;;1.80;;
3541;SDS011;1785;47.388;8.538;2023-11-19T07:33:33;2.47;;;1.80;;
3541;SDS011;1785;47.388;8.538;2023-11-19T07:35:59;2.00;;;1.90;;
3541;SDS011;1785;47.388;8.538;2023-11-19T07:38:26;1.63;;;1.53;;
3541;SDS011;1785;47.388;8.538;2023-11-19T07:40:52;2.13;;;1.50;;
3541;SDS011;1785;47.388;8.538;2023-11-19T07:43:18;1.77;;;1.67;;
3541;SDS011;1785;47.388;8.538;2023-11-19T07:45:44;3.10;;;2.10;;
3541;SDS011;1785;47.388;8.538;2023-11-19T07:48:11;1.93;;;1.83;;
3541;SDS011;1785;47.388;8.538;2023-11-19T07:50:38;1.67;;;1.57;;
3541;SDS011;1785;47.388;8.538;2023-11-19T07:53:05;1.47;;;1.37;;
3541;SDS011;1785;47.388;8.538;2023-11-19T07:55:33;2.23;;;1.90;;
3541;SDS011;1785;47.388;8.538;2023-11-19T07:57:59;1.50;;;1.40;;
3541;SDS011;1785;47.388;8.538;2023-11-19T08:00:25;1.80;;;1.70;;
3541;SDS011;1785;47.388;8.538;2023-11-19T08:02:51;2.37;;;1.87;;
3541;SDS011;1785;47.388;8.538;2023-11-19T08:05:18;1.93;;;1.80;;
3541;SDS011;1785;47.388;8.538;2023-11-19T08:07:43;1.80;;;1.70;;
3541;SDS011;1785;47.388;8.538;2023-11-19T08:10:10;1.93;;;1.83;;
3541;SDS011;1785;47.388;8.538;2023-11-19T08:12:36;2.03;;;1.83;;
3541;SDS011;1785;47.388;8.538;2023-11-19T08:15:03;1.67;;;1.57;;
3541;SDS011;1785;47.388;8.538;2023-11-19T08:17:32;1.90;;;1.80;;
3541;SDS011;1785;47.388;8.538;2023-11-19T08:19:58;2.03;;;1.90;;
3541;SDS011;1785;47.388;8.538;2023-11-19T08:22:25;1.50;;;1.40;;
3541;SDS011;1785;47.388;8.538;2023-11-19T08:24:51;1.83;;;1.73;;
3541;SDS011;1785;47.388;8.538;2023-11-19T08:27:17;2.67;;;1.93;;
3541;SDS011;1785;47.388;8.538;2023-11-19T08:29:44;5.07;;;2.00;;
3541;SDS011;1785;47.388;8.538;2023-11-19T08:32:10;1.90;;;1.80;;
3541;SDS011;1785;47.388;8.538;2023-11-19T08:34:36;1.97;;;1.80;;
3541;SDS011;1785;47.388;8.538;2023-11-19T08:37:03;1.90;;;1.70;;
3541;SDS011;1785;47.388;8.538;2023-11-19T08:39:29;1.87;;;1.77;;
3541;SDS011;1785;47.388;8.538;2023-11-19T08:41:55;2.20;;;1.70;;
3541;SDS011;1785;47.388;8.538;2023-11-19T08:44:21;2.73;;;1.67;;
3541;SDS011;1785;47.388;8.538;2023-11-19T08:46:49;2.17;;;2.07;;
3541;SDS011;1785;47.388;8.538;2023-11-19T08:49:15;2.17;;;1.90;;
3541;SDS011;1785;47.388;8.538;2023-11-19T08:51:41;1.77;;;1.60;;
3541;SDS011;1785;47.388;8.538;2023-11-19T08:54:07;3.30;;;2.13;;
3541;SDS011;1785;47.388;8.538;2023-11-19T08:56:34;1.77;;;1.63;;
3541;SDS011;1785;47.388;8.538;2023-11-19T08:59:00;2.40;;;2.30;;
3541;SDS011;1785;47.388;8.538;2023-11-19T09:01:26;2.43;;;2.00;;
3541;SDS011;1785;47.388;8.538;2023-11-19T09:03:54;2.03;;;1.80;;
3541;SDS011;1785;47.388;8.538;2023-11-19T09:06:20;2.20;;;2.00;;
3541;SDS011;1785;47.388;8.538;2023-11-19T09:08:46;2.20;;;2.00;;
3541;SDS011;1785;47.388;8.538;2023-11-19T09:11:12;4.10;;;1.97;;
3541;SDS011;1785;47.388;8.538;2023-11-19T09:13:38;2.37;;;2.17;;
3541;SDS011;1785;47.388;8.538;2023-11-19T09:16:05;1.73;;;1.50;;
3541;SDS011;1785;47.388;8.538;2023-11-19T09:18:31;1.73;;;1.63;;
3541;SDS011;1785;47.388;8.538;2023-11-19T09:20:58;2.27;;;1.70;;
3541;SDS011;1785;47.388;8.538;2023-11-19T09:23:24;2.00;;;1.90;;
3541;SDS011;1785;47.388;8.538;2023-11-19T09:25:50;1.93;;;1.80;;
3541;SDS011;1785;47.388;8.538;2023-11-19T09:28:16;3.63;;;1.63;;
3541;SDS011;1785;47.388;8.538;2023-11-19T09:30:42;2.00;;;1.87;;
3541;SDS011;1785;47.388;8.538;2023-11-19T09:33:09;1.60;;;1.50;;
3541;SDS011;1785;47.388;8.538;2023-11-19T09:35:35;2.53;;;2.33;;
3541;SDS011;1785;47.388;8.538;2023-11-19T09:38:02;1.83;;;1.73;;
3541;SDS011;1785;47.388;8.538;2023-11-19T09:40:30;1.50;;;1.40;;
3541;SDS011;1785;47.388;8.538;2023-11-19T09:42:56;3.67;;;2.07;;
3541;SDS011;1785;47.388;8.538;2023-11-19T09:45:23;2.30;;;1.67;;
3541;SDS011;1785;47.388;8.538;2023-11-19T09:47:52;2.23;;;1.60;;
3541;SDS011;1785;47.388;8.538;2023-11-19T09:50:22;1.90;;;1.80;;
3541;SDS011;1785;47.388;8.538;2023-11-19T09:52:48;1.77;;;1.67;;
3541;SDS011;1785;47.388;8.538;2023-11-19T09:55:17;2.30;;;2.10;;
3541;SDS011;1785;47.388;8.538;2023-11-19T09:57:43;2.00;;;1.70;;
3541;SDS011;1785;47.388;8.538;2023-11-19T10:00:11;1.80;;;1.70;;
3541;SDS011;1785;47.388;8.538;2023-11-19T10:02:40;1.70;;;1.60;;
3541;SDS011;1785;47.388;8.538;2023-11-19T10:05:11;1.93;;;1.53;;
3541;SDS011;1785;47.388;8.538;2023-11-19T10:07:38;1.70;;;1.60;;
3541;SDS011;1785;47.388;8.538;2023-11-19T10:10:04;1.70;;;1.60;;
3541;SDS011;1785;47.388;8.538;2023-11-19T10:12:31;2.30;;;2.00;;
3541;SDS011;1785;47.388;8.538;2023-11-19T10:14:58;2.17;;;1.80;;
3541;SDS011;1785;47.388;8.538;2023-11-19T10:17:27;2.73;;;1.80;;
3541;SDS011;1785;47.388;8.538;2023-11-19T10:19:54;1.93;;;1.83;;
3541;SDS011;1785;47.388;8.538;2023-11-19T10:22:20;1.80;;;1.70;;
3541;SDS011;1785;47.388;8.538;2023-11-19T10:24:47;2.10;;;2.00;;
3541;SDS011;1785;47.388;8.538;2023-11-19T10:27:13;2.30;;;1.90;;
3541;SDS011;1785;47.388;8.538;2023-11-19T10:29:41;1.80;;;1.70;;
3541;SDS011;1785;47.388;8.538;2023-11-19T10:32:10;3.10;;;1.80;;
3541;SDS011;1785;47.388;8.538;2023-11-19T10:34:38;2.30;;;2.10;;
3541;SDS011;1785;47.388;8.538;2023-11-19T10:37:06;2.00;;;1.80;;
3541;SDS011;1785;47.388;8.538;2023-11-19T10:39:37;2.70;;;1.80;;
3541;SDS011;1785;47.388;8.538;2023-11-19T10:42:19;1.90;;;1.80;;
3541;SDS011;1785;47.388;8.538;2023-11-19T10:44:46;2.57;;;1.60;;
3541;SDS011;1785;47.388;8.538;2023-11-19T10:47:13;1.70;;;1.60;;
3541;SDS011;1785;47.388;8.538;2023-11-19T10:49:40;1.97;;;1.70;;
3541;SDS011;1785;47.388;8.538;2023-11-19T10:52:06;2.00;;;1.73;;
3541;SDS011;1785;47.388;8.538;2023-11-19T10:54:34;2.13;;;1.80;;
3541;SDS011;1785;47.388;8.538;2023-11-19T10:57:02;1.60;;;1.50;;
3541;SDS011;1785;47.388;8.538;2023-11-19T10:59:32;2.77;;;1.87;;
3541;SDS011;1785;47.388;8.538;2023-11-19T11:01:58;3.23;;;1.93;;
3541;SDS011;1785;47.388;8.538;2023-11-19T11:04:30;1.60;;;1.50;;
3541;SDS011;1785;47.388;8.538;2023-11-19T11:06:59;1.93;;;1.73;;
3541;SDS011;1785;47.388;8.538;2023-11-19T11:09:27;1.70;;;1.60;;
3541;SDS011;1785;47.388;8.538;2023-11-19T11:11:53;4.17;;;1.60;;
3541;SDS011;1785;47.388;8.538;2023-11-19T11:14:21;1.33;;;1.23;;
3541;SDS011;1785;47.388;8.538;2023-11-19T11:16:49;3.60;;;1.80;;
3541;SDS011;1785;47.388;8.538;2023-11-19T11:19:17;1.90;;;1.80;;
3541;SDS011;1785;47.388;8.538;2023-11-19T11:21:44;2.57;;;2.30;;
3541;SDS011;1785;47.388;8.538;2023-11-19T11:24:37;2.20;;;1.20;;
3541;SDS011;1785;47.388;8.538;2023-11-19T11:27:21;1.60;;;1.50;;
3541;SDS011;1785;47.388;8.538;2023-11-19T11:30:07;2.37;;;2.10;;
3541;SDS011;1785;47.388;8.538;2023-11-19T11:32:40;1.70;;;1.60;;
3541;SDS011;1785;47.388;8.538;2023-11-19T11:35:19;1.73;;;1.63;;
3541;SDS011;1785;47.388;8.538;2023-11-19T11:37:55;2.43;;;1.90;;
3541;SDS011;1785;47.388;8.538;2023-11-19T11:40:27;2.07;;;1.97;;
3541;SDS011;1785;47.388;8.538;2023-11-19T11:42:53;2.67;;;2.37;;
3541;SDS011;1785;47.388;8.538;2023-11-19T11:45:19;2.10;;;1.80;;
3541;SDS011;1785;47.388;8.538;2023-11-19T11:48:14;1.70;;;1.50;;
3541;SDS011;1785;47.388;8.538;2023-11-19T11:50:52;3.10;;;1.83;;
3541;SDS011;1785;47.388;8.538;2023-11-19T11:53:20;2.57;;;2.00;;
3541;SDS011;1785;47.388;8.538;2023-11-19T11:55:56;2.00;;;1.90;;
3541;SDS011;1785;47.388;8.538;2023-11-19T11:58:34;1.90;;;1.80;;
3541;SDS011;1785;47.388;8.538;2023-11-19T12:01:03;1.87;;;1.77;;
3541;SDS011;1785;47.388;8.538;2023-11-19T12:03:31;2.07;;;1.70;;
3541;SDS011;1785;47.388;8.538;2023-11-19T12:05:58;2.53;;;2.33;;
3541;SDS011;1785;47.388;8.538;2023-11-19T12:08:25;2.00;;;1.80;;
3541;SDS011;1785;47.388;8.538;2023-11-19T12:10:52;2.43;;;1.93;;
3541;SDS011;1785;47.388;8.538;2023-11-19T12:13:20;2.57;;;1.83;;
3541;SDS011;1785;47.388;8.538;2023-11-19T12:18:32;2.27;;;2.17;;
3541;SDS011;1785;47.388;8.538;2023-11-19T12:20:59;3.00;;;2.80;;
3541;SDS011;1785;47.388;8.538;2023-11-19T12:23:27;3.40;;;2.20;;
3541;SDS011;1785;47.388;8.538;2023-11-19T12:25:55;2.20;;;1.60;;
3541;SDS011;1785;47.388;8.538;2023-11-19T12:28:21;1.63;;;1.43;;
3541;SDS011;1785;47.388;8.538;2023-11-19T12:30:49;1.60;;;1.50;;
3541;SDS011;1785;47.388;8.538;2023-11-19T12:33:16;2.17;;;2.07;;
3541;SDS011;1785;47.388;8.538;2023-11-19T12:35:43;1.53;;;1.40;;
3541;SDS011;1785;47.388;8.538;2023-11-19T12:38:18;2.10;;;2.00;;
3541;SDS011;1785;47.388;8.538;2023-11-19T12:40:45;1.80;;;1.60;;
3541;SDS011;1785;47.388;8.538;2023-11-19T12:43:13;2.17;;;1.50;;
3541;SDS011;1785;47.388;8.538;2023-11-19T12:45:47;5.53;;;1.63;;
3541;SDS011;1785;47.388;8.538;2023-11-19T12:48:13;2.33;;;1.73;;
3541;SDS011;1785;47.388;8.538;2023-11-19T12:50:49;2.63;;;1.50;;
3541;SDS011;1785;47.388;8.538;2023-11-19T12:53:16;1.60;;;1.43;;
3541;SDS011;1785;47.388;8.538;2023-11-19T12:55:44;3.20;;;1.60;;
3541;SDS011;1785;47.388;8.538;2023-11-19T12:58:10;2.00;;;1.90;;
3541;SDS011;1785;47.388;8.538;2023-11-19T13:00:36;2.40;;;1.60;;
3541;SDS011;1785;47.388;8.538;2023-11-19T13:03:02;2.37;;;1.33;;
3541;SDS011;1785;47.388;8.538;2023-11-19T13:05:30;1.40;;;1.30;;
3541;SDS011;1785;47.388;8.538;2023-11-19T13:07:58;1.40;;;1.30;;
3541;SDS011;1785;47.388;8.538;2023-11-19T13:10:25;1.70;;;1.50;;
3541;SDS011;1785;47.388;8.538;2023-11-19T13:13:04;1.63;;;1.53;;
3541;SDS011;1785;47.388;8.538;2023-11-19T13:15:31;1.57;;;1.47;;
3541;SDS011;1785;47.388;8.538;2023-11-19T13:17:58;1.77;;;1.60;;
3541;SDS011;1785;47.388;8.538;2023-11-19T13:20:24;1.40;;;1.30;;
3541;SDS011;1785;47.388;8.538;2023-11-19T13:22:54;1.97;;;1.40;;
3541;SDS011;1785;47.388;8.538;2023-11-19T13:25:20;1.53;;;1.43;;
3541;SDS011;1785;47.388;8.538;2023-11-19T13:27:47;1.30;;;1.20;;
3541;SDS011;1785;47.388;8.538;2023-11-19T13:30:14;1.23;;;1.13;;
3541;SDS011;1785;47.388;8.538;2023-11-19T13:32:41;1.53;;;1.40;;
3541;SDS011;1785;47.388;8.538;2023-11-19T13:35:08;1.60;;;1.50;;
3541;SDS011;1785;47.388;8.538;2023-11-19T13:37:34;1.63;;;1.40;;
3541;SDS011;1785;47.388;8.538;2023-11-19T13:40:01;1.47;;;1.37;;
3541;SDS011;1785;47.388;8.538;2023-11-19T13:42:28;1.90;;;1.50;;
3541;SDS011;1785;47.388;8.538;2023-11-19T13:44:54;1.53;;;1.43;;
3541;SDS011;1785;47.388;8.538;2023-11-19T13:47:22;3.00;;;1.77;;
3541;SDS011;1785;47.388;8.538;2023-11-19T13:49:48;1.53;;;1.43;;
3541;SDS011;1785;47.388;8.538;2023-11-19T13:52:15;1.80;;;1.70;;
3541;SDS011;1785;47.388;8.538;2023-11-19T13:54:41;1.40;;;1.30;;
3541;SDS011;1785;47.388;8.538;2023-11-19T13:57:07;2.07;;;1.87;;
3541;SDS011;1785;47.388;8.538;2023-11-19T13:59:37;1.60;;;1.50;;
3541;SDS011;1785;47.388;8.538;2023-11-19T14:02:05;1.50;;;1.40;;
3541;SDS011;1785;47.388;8.538;2023-11-19T14:04:33;2.90;;;2.70;;
3541;SDS011;1785;47.388;8.538;2023-11-19T14:06:59;1.60;;;1.30;;
3541;SDS011;1785;47.388;8.538;2023-11-19T14:09:25;1.47;;;1.33;;
3541;SDS011;1785;47.388;8.538;2023-11-19T14:11:51;1.50;;;1.40;;
3541;SDS011;1785;47.388;8.538;2023-11-19T14:14:17;1.30;;;1.20;;
3541;SDS011;1785;47.388;8.538;2023-11-19T14:16:43;1.27;;;1.10;;
3541;SDS011;1785;47.388;8.538;2023-11-19T14:19:09;1.50;;;1.40;;
3541;SDS011;1785;47.388;8.538;2023-11-19T14:21:36;1.50;;;1.40;;
3541;SDS011;1785;47.388;8.538;2023-11-19T14:24:02;1.30;;;1.20;;
3541;SDS011;1785;47.388;8.538;2023-11-19T14:26:29;1.47;;;1.37;;
3541;SDS011;1785;47.388;8.538;2023-11-19T14:28:55;1.60;;;1.30;;
3541;SDS011;1785;47.388;8.538;2023-11-19T14:31:21;1.30;;;1.20;;
3541;SDS011;1785;47.388;8.538;2023-11-19T14:33:48;1.53;;;1.40;;
3541;SDS011;1785;47.388;8.538;2023-11-19T14:36:14;1.40;;;1.30;;
3541;SDS011;1785;47.388;8.538;2023-11-19T14:38:41;2.97;;;1.20;;
3541;SDS011;1785;47.388;8.538;2023-11-19T14:41:07;1.90;;;1.50;;
3541;SDS011;1785;47.388;8.538;2023-11-19T14:43:33;1.40;;;1.30;;
3541;SDS011;1785;47.388;8.538;2023-11-19T14:45:59;2.47;;;1.40;;
3541;SDS011;1785;47.388;8.538;2023-11-19T14:48:28;1.90;;;1.60;;
3541;SDS011;1785;47.388;8.538;2023-11-19T14:50:54;1.50;;;1.27;;
3541;SDS011;1785;47.388;8.538;2023-11-19T14:53:20;2.23;;;1.40;;
3541;SDS011;1785;47.388;8.538;2023-11-19T14:55:48;1.27;;;1.17;;
3541;SDS011;1785;47.388;8.538;2023-11-19T14:58:14;1.30;;;1.20;;
3541;SDS011;1785;47.388;8.538;2023-11-19T15:00:40;1.20;;;1.10;;
3541;SDS011;1785;47.388;8.538;2023-11-19T15:03:06;1.87;;;1.30;;
3541;SDS011;1785;47.388;8.538;2023-11-19T15:05:33;1.60;;;1.50;;
3541;SDS011;1785;47.388;8.538;2023-11-19T15:08:00;1.57;;;1.47;;
3541;SDS011;1785;47.388;8.538;2023-11-19T15:10:28;1.37;;;1.27;;
3541;SDS011;1785;47.388;8.538;2023-11-19T15:12:54;1.40;;;1.30;;
3541;SDS011;1785;47.388;8.538;2023-11-19T15:15:20;1.50;;;1.07;;
3541;SDS011;1785;47.388;8.538;2023-11-19T15:17:47;1.47;;;1.37;;